sensor_id;sensor_type;location;lat;lon;timestamp;pressure;altitude;pressure_sealevel;temperature;humidity
74542;BME280;63015;45.378;20.360;2024-03-23T00:55:08;100609.28;;;8.71;74.48
74542;BME280;63015;45.378;20.360;2024-03-23T00:57:09;100605.78;;;8.69;74.60
74542;BME280;63015;45.378;20.360;2024-03-23T00:59:09;100607.50;;;8.67;73.93
74542;BME280;63015;45.378;20.360;2024-03-23T01:01:09;100603.16;;;8.67;74.24
74542;BME280;63015;45.378;20.360;2024-03-23T01:03:10;100594.44;;;8.59;74.70
74542;BME280;63015;45.378;20.360;2024-03-23T01:05:10;100601.41;;;8.65;74.79
74542;BME280;63015;45.378;20.360;2024-03-23T01:07:11;100604.00;;;8.63;74.67
74542;BME280;63015;45.378;20.360;2024-03-23T01:09:11;100605.75;;;8.64;74.04
74542;BME280;63015;45.378;20.360;2024-03-23T01:11:12;100604.84;;;8.62;73.68
74542;BME280;63015;45.378;20.360;2024-03-23T01:13:13;100597.91;;;8.60;74.08
74542;BME280;63015;45.378;20.360;2024-03-23T01:15:13;100600.47;;;8.58;74.56
74542;BME280;63015;45.378;20.360;2024-03-23T01:17:14;100587.44;;;8.53;74.31
74542;BME280;63015;45.378;20.360;2024-03-23T01:19:14;100585.66;;;8.49;74.53
74542;BME280;63015;45.378;20.360;2024-03-23T01:21:15;100591.75;;;8.51;74.57
74542;BME280;63015;45.378;20.360;2024-03-23T01:23:15;100591.75;;;8.51;74.67
74542;BME280;63015;45.378;20.360;2024-03-23T01:25:16;100587.34;;;8.46;74.83
74542;BME280;63015;45.378;20.360;2024-03-23T01:27:16;100578.72;;;8.48;74.67
74542;BME280;63015;45.378;20.360;2024-03-23T01:29:17;100582.16;;;8.47;74.50
74542;BME280;63015;45.378;20.360;2024-03-23T01:31:17;100583.81;;;8.42;74.61
74542;BME280;63015;45.378;20.360;2024-03-23T01:33:18;100574.28;;;8.39;74.29
74542;BME280;63015;45.378;20.360;2024-03-23T01:35:18;100588.09;;;8.35;74.37
74542;BME280;63015;45.378;20.360;2024-03-23T01:37:19;100582.03;;;8.35;74.28
74542;BME280;63015;45.378;20.360;2024-03-23T01:39:19;100581.09;;;8.28;74.66
74542;BME280;63015;45.378;20.360;2024-03-23T01:41:20;100573.25;;;8.22;74.42
74542;BME280;63015;45.378;20.360;2024-03-23T01:43:21;100563.63;;;8.15;74.70
74542;BME280;63015;45.378;20.360;2024-03-23T01:45:22;100575.78;;;8.19;74.51
74542;BME280;63015;45.378;20.360;2024-03-23T01:47:23;100573.19;;;8.19;74.48
74542;BME280;63015;45.378;20.360;2024-03-23T01:49:24;100577.50;;;8.15;74.59
74542;BME280;63015;45.378;20.360;2024-03-23T01:51:25;100566.13;;;8.05;75.27
74542;BME280;63015;45.378;20.360;2024-03-23T01:53:26;100571.31;;;8.07;75.10
74542;BME280;63015;45.378;20.360;2024-03-23T01:55:27;100574.66;;;7.95;75.36
74542;BME280;63015;45.378;20.360;2024-03-23T01:57:27;100566.88;;;7.95;75.50
74542;BME280;63015;45.378;20.360;2024-03-23T01:59:28;100560.75;;;7.90;75.46
74542;BME280;63015;45.378;20.360;2024-03-23T02:01:28;100564.25;;;7.94;75.23
74542;BME280;63015;45.378;20.360;2024-03-23T02:03:29;100564.25;;;7.92;75.46
74542;BME280;63015;45.378;20.360;2024-03-23T02:05:30;100570.28;;;7.93;75.43
74542;BME280;63015;45.378;20.360;2024-03-23T02:07:30;100558.13;;;7.88;75.35
74542;BME280;63015;45.378;20.360;2024-03-23T02:09:31;100562.50;;;7.93;74.76
74542;BME280;63015;45.378;20.360;2024-03-23T02:11:32;100559.00;;;7.89;74.94
74542;BME280;63015;45.378;20.360;2024-03-23T02:13:32;100567.63;;;7.88;74.76
74542;BME280;63015;45.378;20.360;2024-03-23T02:15:33;100562.44;;;7.89;74.48
74542;BME280;63015;45.378;20.360;2024-03-23T02:17:34;100560.69;;;7.87;74.57
74542;BME280;63015;45.378;20.360;2024-03-23T02:19:35;100555.41;;;7.79;74.48
74542;BME280;63015;45.378;20.360;2024-03-23T02:21:36;100558.06;;;7.82;74.48
74542;BME280;63015;45.378;20.360;2024-03-23T02:23:36;100560.59;;;7.78;74.40
74542;BME280;63015;45.378;20.360;2024-03-23T02:25:37;100562.34;;;7.79;74.33
74542;BME280;63015;45.378;20.360;2024-03-23T02:27:37;100561.50;;;7.81;74.26
74542;BME280;63015;45.378;20.360;2024-03-23T02:29:39;100561.47;;;7.78;74.41
74542;BME280;63015;45.378;20.360;2024-03-23T02:31:39;100556.22;;;7.75;74.44
74542;BME280;63015;45.378;20.360;2024-03-23T02:33:40;100547.50;;;7.68;74.61
74542;BME280;63015;45.378;20.360;2024-03-23T02:35:41;100538.84;;;7.68;74.76
74542;BME280;63015;45.378;20.360;2024-03-23T02:37:41;100540.47;;;7.61;75.12
74542;BME280;63015;45.378;20.360;2024-03-23T02:39:42;100537.00;;;7.59;75.22
74542;BME280;63015;45.378;20.360;2024-03-23T02:41:42;100538.75;;;7.60;75.12
74542;BME280;63015;45.378;20.360;2024-03-23T02:43:43;100530.91;;;7.57;74.94
74542;BME280;63015;45.378;20.360;2024-03-23T02:45:43;100537.84;;;7.58;75.16
74542;BME280;63015;45.378;20.360;2024-03-23T02:47:44;100533.50;;;7.57;74.89
74542;BME280;63015;45.378;20.360;2024-03-23T02:49:44;100525.66;;;7.51;75.04
74542;BME280;63015;45.378;20.360;2024-03-23T02:51:45;100524.75;;;7.47;75.32
74542;BME280;63015;45.378;20.360;2024-03-23T02:53:48;100529.13;;;7.51;75.19
74542;BME280;63015;45.378;20.360;2024-03-23T02:55:49;100525.63;;;7.48;75.21
74542;BME280;63015;45.378;20.360;2024-03-23T02:57:49;100528.13;;;7.43;75.11
74542;BME280;63015;45.378;20.360;2024-03-23T02:59:50;100530.72;;;7.43;75.48
74542;BME280;63015;45.378;20.360;2024-03-23T03:01:50;100522.94;;;7.43;75.22
74542;BME280;63015;45.378;20.360;2024-03-23T03:03:51;100524.69;;;7.44;75.12
74542;BME280;63015;45.378;20.360;2024-03-23T03:05:55;100512.59;;;7.43;75.01
74542;BME280;63015;45.378;20.360;2024-03-23T03:07:56;100524.69;;;7.43;75.10
74542;BME280;63015;45.378;20.360;2024-03-23T03:09:57;100524.66;;;7.39;75.24
74542;BME280;63015;45.378;20.360;2024-03-23T03:11:57;100522.91;;;7.40;75.04
74542;BME280;63015;45.378;20.360;2024-03-23T03:13:58;100517.72;;;7.37;75.17
74542;BME280;63015;45.378;20.360;2024-03-23T03:16:00;100513.38;;;7.37;75.05
74542;BME280;63015;45.378;20.360;2024-03-23T03:18:01;100516.81;;;7.36;75.23
74542;BME280;63015;45.378;20.360;2024-03-23T03:20:01;100509.03;;;7.36;75.11
74542;BME280;63015;45.378;20.360;2024-03-23T03:22:02;100517.59;;;7.29;75.42
74542;BME280;63015;45.378;20.360;2024-03-23T03:24:06;100516.66;;;7.24;75.51
74542;BME280;63015;45.378;20.360;2024-03-23T03:26:07;100513.13;;;7.19;75.45
74542;BME280;63015;45.378;20.360;2024-03-23T03:28:07;100522.72;;;7.26;75.21
74542;BME280;63015;45.378;20.360;2024-03-23T03:30:08;100515.72;;;7.19;75.34
74542;BME280;63015;45.378;20.360;2024-03-23T03:32:09;100521.69;;;7.13;75.70
74542;BME280;63015;45.378;20.360;2024-03-23T03:34:09;100513.91;;;7.15;75.41
74542;BME280;63015;45.378;20.360;2024-03-23T03:36:10;100514.75;;;7.12;75.38
74542;BME280;63015;45.378;20.360;2024-03-23T03:38:11;100514.72;;;7.11;75.67
74542;BME280;63015;45.378;20.360;2024-03-23T03:40:12;100511.25;;;7.08;75.51
74542;BME280;63015;45.378;20.360;2024-03-23T03:42:15;100513.78;;;7.04;75.68
74542;BME280;63015;45.378;20.360;2024-03-23T03:44:16;100509.41;;;7.00;76.03
74542;BME280;63015;45.378;20.360;2024-03-23T03:46:17;100512.00;;;7.01;75.63
74542;BME280;63015;45.378;20.360;2024-03-23T03:48:17;100513.69;;;6.99;75.95
74542;BME280;63015;45.378;20.360;2024-03-23T03:50:18;100504.97;;;6.94;76.31
74542;BME280;63015;45.378;20.360;2024-03-23T03:52:18;100506.75;;;6.97;76.16
74542;BME280;63015;45.378;20.360;2024-03-23T03:54:20;100513.56;;;6.90;76.18
74542;BME280;63015;45.378;20.360;2024-03-23T03:56:21;100515.31;;;6.91;76.29
74542;BME280;63015;45.378;20.360;2024-03-23T03:58:22;100504.97;;;6.93;75.93
74542;BME280;63015;45.378;20.360;2024-03-23T04:00:23;100511.81;;;6.89;76.21
74542;BME280;63015;45.378;20.360;2024-03-23T04:02:23;100507.41;;;6.83;76.50
74542;BME280;63015;45.378;20.360;2024-03-23T04:04:24;100502.25;;;6.85;76.59
74542;BME280;63015;45.378;20.360;2024-03-23T04:06:24;100503.13;;;6.85;76.67
74542;BME280;63015;45.378;20.360;2024-03-23T04:08:25;100502.22;;;6.82;76.78
74542;BME280;63015;45.378;20.360;2024-03-23T04:10:25;100504.81;;;6.82;76.82
74542;BME280;63015;45.378;20.360;2024-03-23T04:12:27;100507.31;;;6.79;76.82
74542;BME280;63015;45.378;20.360;2024-03-23T04:14:27;100510.81;;;6.79;76.77
74542;BME280;63015;45.378;20.360;2024-03-23T04:16:29;100514.19;;;6.75;76.93
74542;BME280;63015;45.378;20.360;2024-03-23T04:18:29;100509.88;;;6.75;77.13
74542;BME280;63015;45.378;20.360;2024-03-23T04:20:30;100512.50;;;6.77;76.86
74542;BME280;63015;45.378;20.360;2024-03-23T04:22:30;100514.16;;;6.73;77.07
74542;BME280;63015;45.378;20.360;2024-03-23T04:24:31;100510.69;;;6.73;77.01
74542;BME280;63015;45.378;20.360;2024-03-23T04:26:41;100513.25;;;6.70;77.21
74542;BME280;63015;45.378;20.360;2024-03-23T04:28:42;100509.75;;;6.66;77.42
74542;BME280;63015;45.378;20.360;2024-03-23T04:30:43;100518.38;;;6.67;77.26
74542;BME280;63015;45.378;20.360;2024-03-23T04:32:43;100510.56;;;6.65;77.26
74542;BME280;63015;45.378;20.360;2024-03-23T04:34:44;100514.00;;;6.64;77.24
74542;BME280;63015;45.378;20.360;2024-03-23T04:36:45;100514.00;;;6.64;77.11
74542;BME280;63015;45.378;20.360;2024-03-23T04:38:46;100507.06;;;6.63;77.22
74542;BME280;63015;45.378;20.360;2024-03-23T04:40:57;100508.00;;;6.65;77.14
74542;BME280;63015;45.378;20.360;2024-03-23T04:42:57;100511.38;;;6.61;77.24
74542;BME280;63015;45.378;20.360;2024-03-23T04:44:58;100508.81;;;6.63;76.96
74542;BME280;63015;45.378;20.360;2024-03-23T04:47:00;100501.03;;;6.61;76.95
74542;BME280;63015;45.378;20.360;2024-03-23T04:49:01;100500.19;;;6.64;76.69
74542;BME280;63015;45.378;20.360;2024-03-23T04:51:01;100501.84;;;6.58;76.75
74542;BME280;63015;45.378;20.360;2024-03-23T04:53:02;100512.13;;;6.55;76.87
74542;BME280;63015;45.378;20.360;2024-03-23T04:55:03;100502.56;;;6.51;76.94
74542;BME280;63015;45.378;20.360;2024-03-23T04:57:04;100504.31;;;6.51;76.83
74542;BME280;63015;45.378;20.360;2024-03-23T04:59:05;100502.56;;;6.50;76.96
74542;BME280;63015;45.378;20.360;2024-03-23T05:01:06;100504.31;;;6.52;76.66
74542;BME280;63015;45.378;20.360;2024-03-23T05:03:07;100499.16;;;6.54;76.19
74542;BME280;63015;45.378;20.360;2024-03-23T05:05:07;100494.81;;;6.53;76.10
74542;BME280;63015;45.378;20.360;2024-03-23T05:07:08;100504.41;;;6.57;75.79
74542;BME280;63015;45.378;20.360;2024-03-23T05:09:08;100497.38;;;6.50;75.81
74542;BME280;63015;45.378;20.360;2024-03-23T05:11:11;100487.16;;;6.57;75.23
74542;BME280;63015;45.378;20.360;2024-03-23T05:13:12;100491.47;;;6.58;74.96
74542;BME280;63015;45.378;20.360;2024-03-23T05:15:12;100494.19;;;6.65;74.39
74542;BME280;63015;45.378;20.360;2024-03-23T05:17:13;100486.31;;;6.60;74.45
74542;BME280;63015;45.378;20.360;2024-03-23T05:19:13;100483.00;;;6.67;73.95
74542;BME280;63015;45.378;20.360;2024-03-23T05:21:14;100484.69;;;6.67;73.72
74542;BME280;63015;45.378;20.360;2024-03-23T05:23:14;100485.50;;;6.63;73.53
74542;BME280;63015;45.378;20.360;2024-03-23T05:25:15;100487.41;;;6.73;73.11
74542;BME280;63015;45.378;20.360;2024-03-23T05:27:16;100493.50;;;6.77;72.75
74542;BME280;63015;45.378;20.360;2024-03-23T05:29:17;100492.56;;;6.73;72.58
74542;BME280;63015;45.378;20.360;2024-03-23T05:31:43;100490.09;;;6.79;72.30
74542;BME280;63015;45.378;20.360;2024-03-23T05:33:44;100484.94;;;6.82;71.96
74542;BME280;63015;45.378;20.360;2024-03-23T05:35:45;100487.53;;;6.82;71.83
74542;BME280;63015;45.378;20.360;2024-03-23T05:37:45;100487.63;;;6.87;71.75
74542;BME280;63015;45.378;20.360;2024-03-23T05:39:46;100487.72;;;6.95;71.54
74542;BME280;63015;45.378;20.360;2024-03-23T05:41:48;100486.91;;;6.97;71.38
74542;BME280;63015;45.378;20.360;2024-03-23T05:43:49;100491.25;;;6.98;71.12
74542;BME280;63015;45.378;20.360;2024-03-23T05:45:59;100487.97;;;7.12;70.90
74542;BME280;63015;45.378;20.360;2024-03-23T05:48:00;100495.78;;;7.15;70.84
74542;BME280;63015;45.378;20.360;2024-03-23T05:50:01;100483.81;;;7.23;70.52
74542;BME280;63015;45.378;20.360;2024-03-23T05:52:02;100489.94;;;7.28;70.19
74542;BME280;63015;45.378;20.360;2024-03-23T05:54:03;100491.78;;;7.38;69.90
74542;BME280;63015;45.378;20.360;2024-03-23T05:56:05;100496.97;;;7.37;70.24
74542;BME280;63015;45.378;20.360;2024-03-23T05:58:06;100486.69;;;7.45;70.25
74542;BME280;63015;45.378;20.360;2024-03-23T06:00:07;100496.38;;;7.58;70.08
74542;BME280;63015;45.378;20.360;2024-03-23T06:02:15;100486.09;;;7.69;69.78
74542;BME280;63015;45.378;20.360;2024-03-23T06:04:16;100486.25;;;7.78;69.74
74542;BME280;63015;45.378;20.360;2024-03-23T06:06:16;100478.53;;;7.86;69.45
74542;BME280;63015;45.378;20.360;2024-03-23T06:08:17;100486.44;;;7.98;68.81
74542;BME280;63015;45.378;20.360;2024-03-23T06:10:18;100480.56;;;8.13;68.84
74542;BME280;63015;45.378;20.360;2024-03-23T06:12:18;100483.28;;;8.27;68.68
74542;BME280;63015;45.378;20.360;2024-03-23T06:14:19;100478.19;;;8.38;68.41
74542;BME280;63015;45.378;20.360;2024-03-23T06:16:19;100472.19;;;8.45;67.98
74542;BME280;63015;45.378;20.360;2024-03-23T06:18:23;100482.75;;;8.62;67.53
74542;BME280;63015;45.378;20.360;2024-03-23T06:20:24;100474.22;;;8.77;67.28
74542;BME280;63015;45.378;20.360;2024-03-23T06:22:24;100475.16;;;8.90;67.02
74542;BME280;63015;45.378;20.360;2024-03-23T06:24:25;100470.06;;;9.05;66.48
74542;BME280;63015;45.378;20.360;2024-03-23T06:26:25;100469.28;;;9.22;65.94
74542;BME280;63015;45.378;20.360;2024-03-23T06:28:26;100475.44;;;9.36;65.69
74542;BME280;63015;45.378;20.360;2024-03-23T06:30:26;100468.56;;;9.55;65.15
74542;BME280;63015;45.378;20.360;2024-03-23T06:32:28;100476.44;;;9.65;64.62
74542;BME280;63015;45.378;20.360;2024-03-23T06:34:29;100469.56;;;9.85;63.99
74542;BME280;63015;45.378;20.360;2024-03-23T06:36:30;100468.69;;;9.93;63.71
74542;BME280;63015;45.378;20.360;2024-03-23T06:38:31;100473.06;;;10.12;63.17
74542;BME280;63015;45.378;20.360;2024-03-23T06:40:32;100466.16;;;10.22;63.05
74542;BME280;63015;45.378;20.360;2024-03-23T06:42:32;100468.81;;;10.36;62.49
74542;BME280;63015;45.378;20.360;2024-03-23T06:44:33;100467.06;;;10.52;62.50
74542;BME280;63015;45.378;20.360;2024-03-23T06:46:34;100470.53;;;10.69;61.50
74542;BME280;63015;45.378;20.360;2024-03-23T06:48:35;100468.78;;;10.84;61.34
74542;BME280;63015;45.378;20.360;2024-03-23T06:50:35;100466.13;;;11.09;60.91
74542;BME280;63015;45.378;20.360;2024-03-23T06:52:36;100466.97;;;11.17;60.67
74542;BME280;63015;45.378;20.360;2024-03-23T06:54:36;100471.28;;;11.32;59.93
74542;BME280;63015;45.378;20.360;2024-03-23T06:56:37;100463.34;;;11.60;59.71
74542;BME280;63015;45.378;20.360;2024-03-23T06:58:37;100458.09;;;11.72;59.33
74542;BME280;63015;45.378;20.360;2024-03-23T07:00:37;100459.72;;;11.90;58.59
74542;BME280;63015;45.378;20.360;2024-03-23T07:02:38;100462.28;;;12.06;58.21
74542;BME280;63015;45.378;20.360;2024-03-23T07:04:39;100455.19;;;12.22;57.97
74542;BME280;63015;45.378;20.360;2024-03-23T07:06:43;100455.00;;;12.49;57.51
74542;BME280;63015;45.378;20.360;2024-03-23T07:08:44;100456.56;;;12.66;57.28
74542;BME280;63015;45.378;20.360;2024-03-23T07:10:45;100450.38;;;12.76;56.62
74542;BME280;63015;45.378;20.360;2024-03-23T07:12:45;100441.41;;;13.00;56.14
74542;BME280;63015;45.378;20.360;2024-03-23T07:14:46;100447.28;;;13.24;55.30
74542;BME280;63015;45.378;20.360;2024-03-23T07:16:46;100443.63;;;13.39;54.37
74542;BME280;63015;45.378;20.360;2024-03-23T07:18:47;100450.50;;;13.48;53.98
74542;BME280;63015;45.378;20.360;2024-03-23T07:22:54;100438.63;;;13.88;53.10
74542;BME280;63015;45.378;20.360;2024-03-23T07:24:55;100442.63;;;14.13;52.94
74542;BME280;63015;45.378;20.360;2024-03-23T07:26:55;100438.03;;;14.28;51.97
74542;BME280;63015;45.378;20.360;2024-03-23T07:28:58;100432.31;;;14.57;51.49
74542;BME280;63015;45.378;20.360;2024-03-23T07:31:08;100417.19;;;14.75;50.81
74542;BME280;63015;45.378;20.360;2024-03-23T07:33:09;100420.25;;;14.97;50.41
74542;BME280;63015;45.378;20.360;2024-03-23T07:35:09;100414.72;;;15.12;49.08
74542;BME280;63015;45.378;20.360;2024-03-23T07:37:10;100416.53;;;15.51;49.06
74542;BME280;63015;45.378;20.360;2024-03-23T07:39:11;100424.44;;;15.90;47.86
74542;BME280;63015;45.378;20.360;2024-03-23T07:41:15;100415.19;;;16.13;47.58
74542;BME280;63015;45.378;20.360;2024-03-23T07:43:17;100413.00;;;16.31;47.01
74542;BME280;63015;45.378;20.360;2024-03-23T07:45:17;100415.88;;;16.56;46.23
74542;BME280;63015;45.378;20.360;2024-03-23T07:47:18;100411.59;;;16.52;45.10
74542;BME280;63015;45.378;20.360;2024-03-23T07:49:18;100411.72;;;16.80;45.00
74542;BME280;63015;45.378;20.360;2024-03-23T07:51:23;100415.66;;;16.98;44.82
74542;BME280;63015;45.378;20.360;2024-03-23T07:53:24;100406.81;;;17.01;44.21
74542;BME280;63015;45.378;20.360;2024-03-23T07:55:24;100409.31;;;17.37;43.96
74542;BME280;63015;45.378;20.360;2024-03-23T07:57:51;100400.41;;;17.69;43.12
74542;BME280;63015;45.378;20.360;2024-03-23T07:59:51;100396.06;;;17.98;43.10
74542;BME280;63015;45.378;20.360;2024-03-23T08:01:52;100383.34;;;18.11;42.48
74542;BME280;63015;45.378;20.360;2024-03-23T08:03:52;100391.31;;;18.08;41.73
74542;BME280;63015;45.378;20.360;2024-03-23T08:05:54;100388.34;;;18.19;41.01
74542;BME280;63015;45.378;20.360;2024-03-23T08:07:54;100380.75;;;18.62;41.06
74542;BME280;63015;45.378;20.360;2024-03-23T08:09:55;100382.16;;;18.72;40.76
74542;BME280;63015;45.378;20.360;2024-03-23T08:11:55;100386.69;;;18.94;40.19
74542;BME280;63015;45.378;20.360;2024-03-23T08:13:56;100378.84;;;18.92;39.97
74542;BME280;63015;45.378;20.360;2024-03-23T08:15:58;100379.88;;;19.12;39.65
74542;BME280;63015;45.378;20.360;2024-03-23T08:17:59;100377.25;;;19.12;39.41
74542;BME280;63015;45.378;20.360;2024-03-23T08:20:00;100379.59;;;19.19;38.93
74542;BME280;63015;45.378;20.360;2024-03-23T08:22:00;100378.72;;;19.43;39.05
74542;BME280;63015;45.378;20.360;2024-03-23T08:24:02;100364.09;;;19.78;39.06
74542;BME280;63015;45.378;20.360;2024-03-23T08:26:05;100373.34;;;20.12;38.07
74542;BME280;63015;45.378;20.360;2024-03-23T08:28:06;100372.69;;;19.85;37.71
74542;BME280;63015;45.378;20.360;2024-03-23T08:30:07;100359.72;;;20.21;37.88
74542;BME280;63015;45.378;20.360;2024-03-23T08:32:08;100368.66;;;20.40;36.75
74542;BME280;63015;45.378;20.360;2024-03-23T08:34:08;100362.06;;;20.50;37.12
74542;BME280;63015;45.378;20.360;2024-03-23T08:36:10;100365.19;;;20.39;36.65
74542;BME280;63015;45.378;20.360;2024-03-23T08:38:12;100362.72;;;20.55;36.07
74542;BME280;63015;45.378;20.360;2024-03-23T08:40:13;100361.00;;;20.75;35.87
74542;BME280;63015;45.378;20.360;2024-03-23T08:42:13;100352.06;;;20.77;35.52
74542;BME280;63015;45.378;20.360;2024-03-23T08:44:14;100357.22;;;21.01;34.95
74542;BME280;63015;45.378;20.360;2024-03-23T08:46:15;100352.94;;;20.97;34.88
74542;BME280;63015;45.378;20.360;2024-03-23T08:48:16;100349.44;;;20.96;34.67
74542;BME280;63015;45.378;20.360;2024-03-23T08:50:17;100346.19;;;21.10;34.95
74542;BME280;63015;45.378;20.360;2024-03-23T08:52:17;100340.25;;;21.43;34.75
74542;BME280;63015;45.378;20.360;2024-03-23T08:54:18;100335.72;;;21.64;33.99
74542;BME280;63015;45.378;20.360;2024-03-23T08:56:20;100330.38;;;21.83;34.09
74542;BME280;63015;45.378;20.360;2024-03-23T08:58:21;100331.81;;;22.08;33.99
74542;BME280;63015;45.378;20.360;2024-03-23T09:00:22;100314.22;;;21.88;33.66
74542;BME280;63015;45.378;20.360;2024-03-23T09:02:22;100324.66;;;21.74;33.43
74542;BME280;63015;45.378;20.360;2024-03-23T09:04:23;100318.75;;;22.04;33.41
74542;BME280;63015;45.378;20.360;2024-03-23T09:06:23;100316.91;;;22.06;33.27
74542;BME280;63015;45.378;20.360;2024-03-23T09:08:24;100308.22;;;22.20;33.15
74542;BME280;63015;45.378;20.360;2024-03-23T09:10:25;100316.09;;;22.04;32.84
74542;BME280;63015;45.378;20.360;2024-03-23T09:12:25;100300.41;;;22.34;33.36
74542;BME280;63015;45.378;20.360;2024-03-23T09:14:26;100297.91;;;22.48;33.24
74542;BME280;63015;45.378;20.360;2024-03-23T09:16:26;100295.88;;;22.54;32.17
74542;BME280;63015;45.378;20.360;2024-03-23T09:18:27;100294.81;;;22.74;32.66
74542;BME280;63015;45.378;20.360;2024-03-23T09:20:28;100286.16;;;22.86;32.34
74542;BME280;63015;45.378;20.360;2024-03-23T09:22:28;100278.84;;;23.23;32.61
74542;BME280;63015;45.378;20.360;2024-03-23T09:24:29;100264.13;;;23.18;31.86
74542;BME280;63015;45.378;20.360;2024-03-23T09:26:29;100276.53;;;23.17;31.14
74542;BME280;63015;45.378;20.360;2024-03-23T09:28:30;100272.72;;;23.53;30.79
74542;BME280;63015;45.378;20.360;2024-03-23T09:30:32;100272.13;;;23.64;30.18
74542;BME280;63015;45.378;20.360;2024-03-23T09:32:33;100260.34;;;23.84;30.72
74542;BME280;63015;45.378;20.360;2024-03-23T09:34:34;100256.13;;;23.50;30.29
74542;BME280;63015;45.378;20.360;2024-03-23T09:36:34;100258.84;;;23.64;30.35
74542;BME280;63015;45.378;20.360;2024-03-23T09:38:35;100255.16;;;23.51;30.79
74542;BME280;63015;45.378;20.360;2024-03-23T09:40:42;100247.59;;;23.59;30.42
74542;BME280;63015;45.378;20.360;2024-03-23T09:42:49;100247.25;;;23.65;30.16
74542;BME280;63015;45.378;20.360;2024-03-23T09:44:51;100239.97;;;23.53;29.71
74542;BME280;63015;45.378;20.360;2024-03-23T09:46:52;100238.84;;;23.26;30.30
74542;BME280;63015;45.378;20.360;2024-03-23T09:48:52;100238.44;;;23.32;30.69
74542;BME280;63015;45.378;20.360;2024-03-23T09:50:53;100239.16;;;23.36;30.53
74542;BME280;63015;45.378;20.360;2024-03-23T09:52:53;100235.94;;;23.45;30.37
74542;BME280;63015;45.378;20.360;2024-03-23T09:54:54;100227.03;;;23.46;30.14
74542;BME280;63015;45.378;20.360;2024-03-23T09:56:54;100218.59;;;23.54;30.27
74542;BME280;63015;45.378;20.360;2024-03-23T09:59:04;100210.28;;;23.60;30.03
74542;BME280;63015;45.378;20.360;2024-03-23T10:01:05;100214.06;;;23.56;30.47
74542;BME280;63015;45.378;20.360;2024-03-23T10:03:06;100214.56;;;23.63;31.02
74542;BME280;63015;45.378;20.360;2024-03-23T10:05:20;100211.72;;;23.96;30.26
74542;BME280;63015;45.378;20.360;2024-03-23T10:07:22;100219.56;;;24.14;30.37
74542;BME280;63015;45.378;20.360;2024-03-23T10:09:22;100203.38;;;24.03;29.64
74542;BME280;63015;45.378;20.360;2024-03-23T10:11:23;100196.66;;;23.81;29.70
74542;BME280;63015;45.378;20.360;2024-03-23T10:13:28;100197.56;;;24.10;30.12
74542;BME280;63015;45.378;20.360;2024-03-23T10:15:36;100189.13;;;23.73;29.10
74542;BME280;63015;45.378;20.360;2024-03-23T10:17:36;100188.56;;;24.13;29.41
74542;BME280;63015;45.378;20.360;2024-03-23T10:19:38;100186.31;;;23.76;30.07
74542;BME280;63015;45.378;20.360;2024-03-23T10:21:38;100184.16;;;23.97;30.17
74542;BME280;63015;45.378;20.360;2024-03-23T10:23:40;100183.44;;;24.24;29.83
74542;BME280;63015;45.378;20.360;2024-03-23T10:25:41;100176.38;;;24.23;29.79
74542;BME280;63015;45.378;20.360;2024-03-23T10:27:42;100173.91;;;24.06;29.50
74542;BME280;63015;45.378;20.360;2024-03-23T10:29:47;100168.88;;;24.16;29.73
74542;BME280;63015;45.378;20.360;2024-03-23T10:31:47;100164.66;;;24.40;29.38
74542;BME280;63015;45.378;20.360;2024-03-23T10:33:48;100159.81;;;23.89;29.06
74542;BME280;63015;45.378;20.360;2024-03-23T10:35:49;100157.28;;;24.02;29.86
74542;BME280;63015;45.378;20.360;2024-03-23T10:37:51;100159.28;;;23.83;29.32
74542;BME280;63015;45.378;20.360;2024-03-23T10:39:52;100147.09;;;24.23;29.00
74542;BME280;63015;45.378;20.360;2024-03-23T10:41:53;100145.19;;;24.11;29.05
74542;BME280;63015;45.378;20.360;2024-03-23T10:43:57;100142.25;;;24.01;28.70
74542;BME280;63015;45.378;20.360;2024-03-23T10:45:58;100129.22;;;24.11;28.93
74542;BME280;63015;45.378;20.360;2024-03-23T10:47:59;100130.63;;;24.45;29.09
74542;BME280;63015;45.378;20.360;2024-03-23T10:49:59;100130.03;;;24.55;29.24
74542;BME280;63015;45.378;20.360;2024-03-23T10:52:02;100123.44;;;24.75;29.56
74542;BME280;63015;45.378;20.360;2024-03-23T10:54:04;100119.38;;;24.55;28.34
74542;BME280;63015;45.378;20.360;2024-03-23T10:56:05;100117.44;;;24.99;28.37
74542;BME280;63015;45.378;20.360;2024-03-23T10:58:07;100100.94;;;25.06;27.89
74542;BME280;63015;45.378;20.360;2024-03-23T11:00:08;100102.50;;;25.23;27.82
74542;BME280;63015;45.378;20.360;2024-03-23T11:02:18;100095.72;;;25.45;27.74
74542;BME280;63015;45.378;20.360;2024-03-23T11:04:38;100090.06;;;25.37;27.90
74542;BME280;63015;45.378;20.360;2024-03-23T11:06:42;100085.63;;;25.23;28.07
74542;BME280;63015;45.378;20.360;2024-03-23T11:08:43;100088.97;;;24.86;27.34
74542;BME280;63015;45.378;20.360;2024-03-23T11:10:43;100088.16;;;24.71;27.52
74542;BME280;63015;45.378;20.360;2024-03-23T11:12:44;100080.38;;;24.68;27.33
74542;BME280;63015;45.378;20.360;2024-03-23T11:14:45;100074.47;;;24.90;27.55
74542;BME280;63015;45.378;20.360;2024-03-23T11:17:09;100066.47;;;24.90;27.88
74542;BME280;63015;45.378;20.360;2024-03-23T11:19:38;100060.31;;;24.90;27.59
74542;BME280;63015;45.378;20.360;2024-03-23T11:21:54;100055.38;;;24.84;27.46
74542;BME280;63015;45.378;20.360;2024-03-23T11:24:13;100051.63;;;24.73;28.19
74542;BME280;63015;45.378;20.360;2024-03-23T11:26:13;100056.16;;;24.99;27.08
74542;BME280;63015;45.378;20.360;2024-03-23T11:28:14;100048.81;;;25.02;27.40